Time;durP1;ratioP1;P1;durP2;ratioP2;P2;SDS_P1;SDS_P2;PMS_P1;PMS_P2;Temp;Humidity;BMP_temperature;BMP_pressure;BME280_temperature;BME280_humidity;BME280_pressure;Samples;Min_cycle;Max_cycle;Signal;HPM_P1;HPM_P2
2022/08/26 00:00:38;;;;;;;11.80;9.10;;;;;;;;;;5020989;28;20435;-51
2022/08/26 00:03:04;;;;;;;13.90;9.67;;;;;;;;;;5014957;28;20255;-51
2022/08/26 00:05:30;;;;;;;8.70;7.17;;;;;;;;;;5025894;28;20440;-52
2022/08/26 00:07:56;;;;;;;12.30;8.27;;;;;;;;;;4981429;28;20459;-51
2022/08/26 00:10:22;;;;;;;10.97;7.53;;;;;;;;;;5015714;28;20634;-51
2022/08/26 00:12:48;;;;;;;9.40;6.10;;;;;;;;;;5004983;28;20526;-52
2022/08/26 00:15:14;;;;;;;9.57;7.00;;;;;;;;;;5024716;28;20526;-50
2022/08/26 00:17:40;;;;;;;9.33;7.03;;;;;;;;;;5017767;28;20431;-52
2022/08/26 00:20:07;;;;;;;11.73;6.63;;;;;;;;;;5025902;28;20445;-52
2022/08/26 00:22:33;;;;;;;6.23;5.60;;;;;;;;;;5025409;28;20207;-53
2022/08/26 00:24:59;;;;;;;7.30;6.60;;;;;;;;;;4985731;28;20443;-52
2022/08/26 00:27:25;;;;;;;8.97;5.77;;;;;;;;;;5024826;28;20445;-52
2022/08/26 00:29:51;;;;;;;10.00;6.10;;;;;;;;;;5013120;28;20212;-52
2022/08/26 00:32:17;;;;;;;6.40;5.80;;;;;;;;;;5028923;28;20211;-52
2022/08/26 00:34:43;;;;;;;6.90;6.07;;;;;;;;;;4998228;28;20681;-52
2022/08/26 00:37:09;;;;;;;6.20;5.60;;;;;;;;;;5025743;28;20184;-52
2022/08/26 00:39:35;;;;;;;6.73;6.13;;;;;;;;;;4995731;28;20451;-54
2022/08/26 00:42:01;;;;;;;6.00;5.50;;;;;;;;;;5013729;28;20447;-52
2022/08/26 00:44:27;;;;;;;7.17;5.50;;;;;;;;;;4990955;28;20497;-52
2022/08/26 00:46:54;;;;;;;6.10;5.40;;;;;;;;;;5014701;28;20450;-53
2022/08/26 00:49:24;;;;;;;6.33;5.67;;;;;;;;;;4999816;28;20443;-53
2022/08/26 00:51:51;;;;;;;6.87;6.23;;;;;;;;;;5007794;28;20445;-53
2022/08/26 00:54:17;;;;;;;5.73;5.23;;;;;;;;;;5005127;28;20530;-53
2022/08/26 00:56:52;;;;;;;7.93;6.43;;;;;;;;;;4994396;28;20447;-53
2022/08/26 00:59:18;;;;;;;7.07;5.80;;;;;;;;;;5021072;28;20629;-53
2022/08/26 01:01:44;;;;;;;6.10;5.50;;;;;;;;;;5006281;28;20450;-53
2022/08/26 01:04:10;;;;;;;6.83;6.13;;;;;;;;;;5018148;28;20191;-53
2022/08/26 01:06:36;;;;;;;6.57;5.97;;;;;;;;;;5007459;28;20453;-52
2022/08/26 01:09:03;;;;;;;7.17;6.47;;;;;;;;;;5008745;28;20438;-53
2022/08/26 01:11:29;;;;;;;6.93;6.23;;;;;;;;;;5017396;28;21005;-52
2022/08/26 01:13:55;;;;;;;6.33;5.83;;;;;;;;;;5010958;28;20434;-52
2022/08/26 01:16:23;;;;;;;6.37;5.77;;;;;;;;;;4968461;28;20189;-52
2022/08/26 01:18:49;;;;;;;6.20;5.60;;;;;;;;;;5027563;28;20439;-52
2022/08/26 01:21:26;;;;;;;6.77;5.63;;;;;;;;;;5003190;28;20438;-52
2022/08/26 01:23:52;;;;;;;7.30;6.60;;;;;;;;;;5025507;28;20176;-53
2022/08/26 01:26:19;;;;;;;5.70;5.20;;;;;;;;;;4984710;28;20447;-52
2022/08/26 01:28:45;;;;;;;6.37;5.60;;;;;;;;;;5018437;28;20441;-52
2022/08/26 01:31:11;;;;;;;6.50;5.90;;;;;;;;;;5018772;28;20571;-52
2022/08/26 01:33:40;;;;;;;6.93;5.97;;;;;;;;;;5012766;28;20438;-52
2022/08/26 01:36:06;;;;;;;6.80;5.40;;;;;;;;;;5020184;28;20439;-53
2022/08/26 01:38:32;;;;;;;6.90;6.30;;;;;;;;;;5020847;28;20442;-52
2022/08/26 01:40:58;;;;;;;6.90;6.00;;;;;;;;;;5008060;28;20492;-52
2022/08/26 01:43:24;;;;;;;6.00;5.40;;;;;;;;;;5030392;28;20872;-52
2022/08/26 01:45:53;;;;;;;6.97;6.27;;;;;;;;;;4989064;28;20533;-52
2022/08/26 01:48:19;;;;;;;6.20;5.63;;;;;;;;;;5024915;28;20875;-53
2022/08/26 01:50:45;;;;;;;7.50;5.60;;;;;;;;;;4984573;28;20478;-53
2022/08/26 01:53:12;;;;;;;7.73;6.40;;;;;;;;;;5011059;28;20807;-52
2022/08/26 01:55:39;;;;;;;6.03;5.50;;;;;;;;;;5007558;28;20210;-52
2022/08/26 01:58:05;;;;;;;6.00;5.40;;;;;;;;;;5007293;28;20424;-52
2022/08/26 02:00:32;;;;;;;6.63;6.10;;;;;;;;;;5003441;28;20470;-53
2022/08/26 02:03:20;;;;;;;7.60;5.80;;;;;;;;;;5027209;28;20419;-52
2022/08/26 02:05:44;;;;;;;6.37;5.63;;;;;;;;;;5001677;28;20883;-52
2022/08/26 02:08:10;;;;;;;9.03;6.67;;;;;;;;;;5029264;28;20510;-52
2022/08/26 02:10:36;;;;;;;6.90;6.20;;;;;;;;;;5022250;28;20550;-52
2022/08/26 02:13:02;;;;;;;6.63;6.03;;;;;;;;;;5012619;28;20502;-53
2022/08/26 02:15:28;;;;;;;6.00;5.43;;;;;;;;;;5021130;28;20454;-52
2022/08/26 02:17:54;;;;;;;5.53;5.03;;;;;;;;;;5030225;28;20585;-52
2022/08/26 02:20:20;;;;;;;5.40;4.90;;;;;;;;;;4981414;28;20447;-54
2022/08/26 02:22:46;;;;;;;7.03;5.50;;;;;;;;;;5026039;28;20647;-53
2022/08/26 02:25:12;;;;;;;7.00;5.87;;;;;;;;;;5007003;28;20947;-53
2022/08/26 02:27:38;;;;;;;9.80;6.20;;;;;;;;;;5031900;28;20941;-53
2022/08/26 02:30:07;;;;;;;7.00;5.77;;;;;;;;;;5004396;28;20675;-54
2022/08/26 02:32:33;;;;;;;9.83;6.23;;;;;;;;;;5026899;28;20455;-52
2022/08/26 02:34:59;;;;;;;6.20;5.60;;;;;;;;;;5005660;28;21036;-53
2022/08/26 02:37:27;;;;;;;5.83;5.23;;;;;;;;;;5030962;28;20183;-53
2022/08/26 02:39:53;;;;;;;6.80;6.10;;;;;;;;;;5010254;28;20434;-53
2022/08/26 02:42:19;;;;;;;6.43;5.70;;;;;;;;;;5026668;28;20518;-53
2022/08/26 02:44:45;;;;;;;7.07;6.37;;;;;;;;;;5020195;28;20204;-53
2022/08/26 02:47:12;;;;;;;5.77;5.20;;;;;;;;;;5022214;28;21114;-53
2022/08/26 02:49:38;;;;;;;7.03;5.53;;;;;;;;;;5007764;28;20556;-53
2022/08/26 02:52:05;;;;;;;6.80;5.43;;;;;;;;;;5015106;28;20500;-53
2022/08/26 02:54:31;;;;;;;6.30;4.80;;;;;;;;;;5001163;28;21802;-53
2022/08/26 02:56:57;;;;;;;6.50;5.90;;;;;;;;;;5008000;28;20483;-53
2022/08/26 02:59:23;;;;;;;6.53;5.97;;;;;;;;;;5022298;28;20497;-53
2022/08/26 03:01:48;;;;;;;6.47;5.87;;;;;;;;;;5027084;28;20722;-54
2022/08/26 03:04:14;;;;;;;7.03;6.33;;;;;;;;;;5015350;28;20637;-53
2022/08/26 03:06:41;;;;;;;6.97;6.30;;;;;;;;;;5009654;28;20551;-53
2022/08/26 03:09:06;;;;;;;8.07;6.47;;;;;;;;;;5026477;28;20442;-54
2022/08/26 03:11:33;;;;;;;5.70;5.20;;;;;;;;;;5021864;28;20479;-53
2022/08/26 03:13:59;;;;;;;6.30;5.53;;;;;;;;;;5011280;28;20258;-53
2022/08/26 03:16:25;;;;;;;7.90;5.93;;;;;;;;;;5016566;28;20447;-52
2022/08/26 03:18:52;;;;;;;6.20;5.60;;;;;;;;;;5023609;28;20850;-53
2022/08/26 03:21:18;;;;;;;7.80;6.60;;;;;;;;;;5012492;28;20452;-53
2022/08/26 03:23:44;;;;;;;8.57;6.60;;;;;;;;;;5026543;28;20824;-53
2022/08/26 03:26:11;;;;;;;7.83;6.00;;;;;;;;;;4978583;28;20459;-53
2022/08/26 03:30:38;;;;;;;7.13;6.40;;;;;;;;;;5008011;28;20423;-53
2022/08/26 03:31:26;;;;;;;6.77;6.17;;;;;;;;;;5004918;28;20560;-54
2022/08/26 03:33:52;;;;;;;6.53;5.97;;;;;;;;;;5024078;28;20423;-53
2022/08/26 03:36:18;;;;;;;7.40;5.80;;;;;;;;;;5024083;28;20439;-53
2022/08/26 03:38:44;;;;;;;9.43;6.17;;;;;;;;;;5012762;28;20975;-53
2022/08/26 03:41:11;;;;;;;7.80;5.23;;;;;;;;;;5009216;28;20444;-54
2022/08/26 03:43:37;;;;;;;6.77;6.03;;;;;;;;;;5027330;28;20181;-52
2022/08/26 03:46:06;;;;;;;5.83;5.27;;;;;;;;;;5003533;28;20526;-52
2022/08/26 03:48:32;;;;;;;6.70;6.10;;;;;;;;;;5028126;28;20513;-53
2022/08/26 03:50:58;;;;;;;8.93;5.80;;;;;;;;;;5021726;28;20470;-53
2022/08/26 03:53:24;;;;;;;5.90;5.40;;;;;;;;;;5021124;28;20431;-52
2022/08/26 03:55:50;;;;;;;6.40;5.80;;;;;;;;;;5006592;28;20455;-52
2022/08/26 03:58:16;;;;;;;7.93;6.53;;;;;;;;;;5020222;28;20178;-53
2022/08/26 04:00:42;;;;;;;6.23;5.63;;;;;;;;;;4977834;28;20193;-52
2022/08/26 04:03:10;;;;;;;5.30;4.80;;;;;;;;;;5018116;28;20168;-52
2022/08/26 04:05:36;;;;;;;6.07;5.53;;;;;;;;;;5005368;28;20188;-52
2022/08/26 04:08:02;;;;;;;5.87;5.37;;;;;;;;;;5030291;28;20759;-53
2022/08/26 04:10:28;;;;;;;7.13;5.67;;;;;;;;;;5019886;28;20219;-53
2022/08/26 04:12:53;;;;;;;6.13;5.50;;;;;;;;;;5030636;28;20427;-53
2022/08/26 04:15:20;;;;;;;8.27;6.43;;;;;;;;;;4981833;28;20192;-54
2022/08/26 04:17:46;;;;;;;8.73;6.50;;;;;;;;;;5019816;28;20181;-54
2022/08/26 04:20:12;;;;;;;7.00;6.30;;;;;;;;;;5020471;28;20431;-54
2022/08/26 04:22:39;;;;;;;6.63;5.83;;;;;;;;;;5029764;28;20463;-54
2022/08/26 04:25:05;;;;;;;6.57;5.47;;;;;;;;;;5003933;28;20439;-54
2022/08/26 04:27:32;;;;;;;6.30;4.90;;;;;;;;;;5025306;28;20470;-53
2022/08/26 04:29:57;;;;;;;6.50;5.60;;;;;;;;;;4982389;28;20483;-54
2022/08/26 04:32:23;;;;;;;6.40;5.80;;;;;;;;;;5021737;28;21715;-54
2022/08/26 04:34:49;;;;;;;7.00;5.83;;;;;;;;;;5001042;28;21671;-53
2022/08/26 04:37:15;;;;;;;6.60;5.90;;;;;;;;;;5026221;28;20599;-54
2022/08/26 04:39:41;;;;;;;6.57;5.70;;;;;;;;;;5006655;28;20764;-54
2022/08/26 04:42:07;;;;;;;7.27;5.63;;;;;;;;;;5011672;28;20180;-54
2022/08/26 04:44:34;;;;;;;6.80;6.10;;;;;;;;;;5021170;28;21186;-54
2022/08/26 04:47:00;;;;;;;6.63;6.03;;;;;;;;;;5031211;28;20447;-54
2022/08/26 04:49:26;;;;;;;7.37;5.67;;;;;;;;;;5028991;28;20445;-54
2022/08/26 04:51:52;;;;;;;5.90;5.40;;;;;;;;;;5028236;28;20315;-54
2022/08/26 04:54:18;;;;;;;6.80;6.00;;;;;;;;;;5015732;28;20640;-54
2022/08/26 04:56:44;;;;;;;6.10;5.60;;;;;;;;;;5017837;28;20582;-54
2022/08/26 04:59:14;;;;;;;7.53;5.73;;;;;;;;;;5011842;28;20511;-54
2022/08/26 05:01:42;;;;;;;8.50;6.50;;;;;;;;;;4978421;28;20984;-53
2022/08/26 05:04:08;;;;;;;9.13;6.37;;;;;;;;;;5013571;28;21077;-54
2022/08/26 05:06:34;;;;;;;6.67;6.07;;;;;;;;;;5026645;28;20431;-54
2022/08/26 05:09:00;;;;;;;6.60;5.83;;;;;;;;;;5031687;28;20186;-54
2022/08/26 05:11:26;;;;;;;6.30;5.80;;;;;;;;;;5019434;28;20215;-52
2022/08/26 05:13:52;;;;;;;6.53;5.70;;;;;;;;;;5009225;28;20185;-54
2022/08/26 05:16:18;;;;;;;6.80;6.20;;;;;;;;;;4990052;28;20455;-53
2022/08/26 05:18:44;;;;;;;6.90;5.70;;;;;;;;;;5026865;28;20517;-53
2022/08/26 05:21:17;;;;;;;6.60;5.70;;;;;;;;;;5027034;28;20173;-53
2022/08/26 05:23:43;;;;;;;6.63;6.03;;;;;;;;;;5011877;28;21386;-54
2022/08/26 05:26:09;;;;;;;6.30;5.80;;;;;;;;;;5009021;28;20937;-54
2022/08/26 05:28:35;;;;;;;7.90;6.03;;;;;;;;;;5030738;28;21003;-54
2022/08/26 05:31:01;;;;;;;7.43;6.63;;;;;;;;;;5021899;28;20217;-54
2022/08/26 05:33:28;;;;;;;6.70;6.10;;;;;;;;;;5027960;28;20454;-54
2022/08/26 05:35:54;;;;;;;8.20;6.40;;;;;;;;;;4982271;28;20528;-54
2022/08/26 05:38:20;;;;;;;6.93;6.30;;;;;;;;;;5029063;28;20616;-53
2022/08/26 05:40:49;;;;;;;7.03;5.93;;;;;;;;;;5023349;28;20263;-53
2022/08/26 05:43:16;;;;;;;9.83;6.93;;;;;;;;;;5029150;28;20427;-53
2022/08/26 05:45:42;;;;;;;9.70;7.20;;;;;;;;;;5002157;28;20463;-53
2022/08/26 05:48:08;;;;;;;7.80;5.97;;;;;;;;;;5028248;28;20423;-53
2022/08/26 05:50:38;;;;;;;7.67;5.60;;;;;;;;;;5017618;28;20474;-52
2022/08/26 05:53:04;;;;;;;8.00;5.50;;;;;;;;;;5028347;28;20168;-53
2022/08/26 05:55:32;;;;;;;8.40;6.23;;;;;;;;;;5002850;28;20443;-54
2022/08/26 05:57:57;;;;;;;8.73;6.57;;;;;;;;;;5023094;28;20438;-54
2022/08/26 06:00:23;;;;;;;7.20;5.87;;;;;;;;;;5024612;28;20439;-54
2022/08/26 06:02:49;;;;;;;7.50;6.90;;;;;;;;;;5026726;28;20192;-53
2022/08/26 06:05:15;;;;;;;6.67;6.07;;;;;;;;;;5024770;28;20176;-53
2022/08/26 06:10:26;;;;;;;9.70;7.27;;;;;;;;;;4983940;28;20509;-53
2022/08/26 06:12:52;;;;;;;18.20;7.50;;;;;;;;;;5026327;28;20439;-53
2022/08/26 06:15:18;;;;;;;6.50;5.90;;;;;;;;;;5004252;28;20597;-54
2022/08/26 06:17:44;;;;;;;7.50;6.00;;;;;;;;;;5029651;28;20177;-54
2022/08/26 06:20:10;;;;;;;8.50;6.63;;;;;;;;;;5025144;28;20462;-54
2022/08/26 06:25:39;;;;;;;9.60;7.10;;;;;;;;;;5022866;28;20446;-54
2022/08/26 06:28:06;;;;;;;7.07;6.40;;;;;;;;;;5030803;28;20427;-53
2022/08/26 06:30:32;;;;;;;8.30;6.87;;;;;;;;;;5023350;28;20482;-54
2022/08/26 06:32:59;;;;;;;9.03;6.70;;;;;;;;;;5010702;28;20443;-54
2022/08/26 06:35:25;;;;;;;11.20;7.27;;;;;;;;;;5002127;28;20976;-53
2022/08/26 06:37:51;;;;;;;7.37;6.23;;;;;;;;;;5030759;28;20442;-53
2022/08/26 06:40:17;;;;;;;7.37;6.67;;;;;;;;;;4984974;28;20188;-54
2022/08/26 06:42:43;;;;;;;12.53;6.30;;;;;;;;;;5023029;28;20436;-54
2022/08/26 06:45:09;;;;;;;7.70;6.27;;;;;;;;;;5024891;28;20180;-54
2022/08/26 06:47:35;;;;;;;9.83;6.63;;;;;;;;;;5029407;28;20455;-53
2022/08/26 06:50:02;;;;;;;7.43;6.20;;;;;;;;;;5020431;28;21068;-53
2022/08/26 06:52:27;;;;;;;10.13;6.93;;;;;;;;;;5028294;28;20498;-54
2022/08/26 06:54:53;;;;;;;8.17;7.40;;;;;;;;;;5005855;28;20463;-54
2022/08/26 06:57:19;;;;;;;7.73;6.70;;;;;;;;;;5026770;28;20442;-54
2022/08/26 06:59:46;;;;;;;8.40;7.47;;;;;;;;;;5018596;28;20527;-54
2022/08/26 07:02:13;;;;;;;8.23;7.07;;;;;;;;;;5029047;28;20991;-54
2022/08/26 07:04:39;;;;;;;9.90;6.47;;;;;;;;;;5009617;28;20539;-55
2022/08/26 07:07:05;;;;;;;8.83;7.77;;;;;;;;;;5018883;28;20435;-54
2022/08/26 07:09:34;;;;;;;7.80;7.10;;;;;;;;;;5023427;28;20432;-54
2022/08/26 07:12:00;;;;;;;8.37;7.37;;;;;;;;;;5028419;28;20257;-54
2022/08/26 07:14:26;;;;;;;8.23;6.70;;;;;;;;;;5003328;28;20545;-53
2022/08/26 07:16:52;;;;;;;8.27;7.47;;;;;;;;;;5008462;28;20455;-52
2022/08/26 07:19:18;;;;;;;8.00;7.30;;;;;;;;;;5022245;28;20442;-52
2022/08/26 07:21:44;;;;;;;7.43;6.20;;;;;;;;;;5020309;28;20427;-53
2022/08/26 07:24:10;;;;;;;7.03;6.33;;;;;;;;;;5022974;28;20427;-53
2022/08/26 07:26:36;;;;;;;7.70;6.90;;;;;;;;;;5009275;28;20199;-52
2022/08/26 07:29:02;;;;;;;7.60;6.40;;;;;;;;;;5028311;28;20444;-54
2022/08/26 07:31:29;;;;;;;7.37;6.67;;;;;;;;;;5010634;28;20540;-54
2022/08/26 07:33:56;;;;;;;7.33;6.53;;;;;;;;;;5024816;28;20938;-54
2022/08/26 07:36:22;;;;;;;8.20;7.20;;;;;;;;;;4999834;28;20857;-52
2022/08/26 07:38:48;;;;;;;9.53;7.13;;;;;;;;;;5024364;28;20446;-53
2022/08/26 07:41:14;;;;;;;7.67;6.90;;;;;;;;;;5016985;28;20439;-53
2022/08/26 07:43:40;;;;;;;7.20;6.50;;;;;;;;;;5029737;28;20427;-53
2022/08/26 07:46:06;;;;;;;6.53;5.83;;;;;;;;;;4983501;28;21079;-54
2022/08/26 07:48:32;;;;;;;7.23;6.53;;;;;;;;;;4999246;28;20188;-54
2022/08/26 07:50:58;;;;;;;9.87;7.70;;;;;;;;;;5022494;28;21016;-54
2022/08/26 07:53:24;;;;;;;8.00;7.17;;;;;;;;;;5028388;28;20426;-54
2022/08/26 07:55:50;;;;;;;8.03;6.80;;;;;;;;;;5006397;28;20451;-53
2022/08/26 07:58:16;;;;;;;7.40;6.70;;;;;;;;;;5021942;28;20183;-55
2022/08/26 08:00:42;;;;;;;6.97;6.23;;;;;;;;;;5023930;28;20438;-54
2022/08/26 08:03:08;;;;;;;7.40;6.70;;;;;;;;;;5028326;28;20526;-55
2022/08/26 08:05:35;;;;;;;12.63;6.60;;;;;;;;;;5008623;28;20458;-54
2022/08/26 08:08:01;;;;;;;6.67;6.07;;;;;;;;;;5021050;28;20181;-55
2022/08/26 08:10:27;;;;;;;9.03;7.33;;;;;;;;;;5014579;28;20499;-54
2022/08/26 08:12:53;;;;;;;9.53;5.90;;;;;;;;;;5015200;28;20436;-55
2022/08/26 08:15:20;;;;;;;10.90;6.80;;;;;;;;;;5006611;28;20449;-54
2022/08/26 08:17:46;;;;;;;7.30;6.60;;;;;;;;;;5027943;28;20442;-54
2022/08/26 08:20:12;;;;;;;8.20;7.43;;;;;;;;;;4961887;28;20444;-53
2022/08/26 08:22:38;;;;;;;11.60;6.70;;;;;;;;;;5022181;28;20522;-54
2022/08/26 08:25:05;;;;;;;13.43;7.07;;;;;;;;;;5014182;28;20499;-54
2022/08/26 08:27:34;;;;;;;9.80;8.17;;;;;;;;;;5028268;28;21037;-54
2022/08/26 08:30:00;;;;;;;9.60;7.57;;;;;;;;;;5021162;28;20462;-54
2022/08/26 08:32:28;;;;;;;7.87;7.10;;;;;;;;;;5026539;28;20462;-53
2022/08/26 08:34:53;;;;;;;8.20;7.10;;;;;;;;;;5004070;28;20745;-54
2022/08/26 08:37:19;;;;;;;10.40;7.57;;;;;;;;;;5024200;28;20435;-54
2022/08/26 08:39:45;;;;;;;8.23;7.43;;;;;;;;;;5018436;28;20259;-54
2022/08/26 08:42:26;;;;;;;9.87;7.00;;;;;;;;;;5019918;28;20493;-54
2022/08/26 08:44:52;;;;;;;9.43;7.20;;;;;;;;;;5005369;28;21222;-53
2022/08/26 08:47:25;;;;;;;7.90;6.93;;;;;;;;;;5026162;28;20454;-54
2022/08/26 08:49:51;;;;;;;7.70;6.90;;;;;;;;;;4960042;28;21488;-55
2022/08/26 08:52:36;;;;;;;8.93;7.27;;;;;;;;;;5017639;28;20522;-53
2022/08/26 08:55:03;;;;;;;7.73;7.03;;;;;;;;;;4997319;28;20872;-54
2022/08/26 08:57:46;;;;;;;12.83;7.87;;;;;;;;;;5026499;28;20424;-53
2022/08/26 09:00:15;;;;;;;11.87;7.77;;;;;;;;;;5001361;28;20461;-54
2022/08/26 09:03:00;;;;;;;9.13;6.93;;;;;;;;;;5006842;28;20432;-53
2022/08/26 09:05:30;;;;;;;7.73;7.00;;;;;;;;;;4999945;28;21055;-58
2022/08/26 09:08:03;;;;;;;12.03;7.50;;;;;;;;;;5013180;28;20441;-53
2022/08/26 09:10:35;;;;;;;15.93;6.80;;;;;;;;;;5021890;28;20971;-53
2022/08/26 09:13:03;;;;;;;15.10;7.80;;;;;;;;;;5026220;28;20867;-54
2022/08/26 09:15:49;;;;;;;10.63;7.40;;;;;;;;;;4997141;28;20909;-52
2022/08/26 09:18:33;;;;;;;9.50;7.60;;;;;;;;;;5022793;28;20434;-54
2022/08/26 09:21:00;;;;;;;7.60;6.90;;;;;;;;;;5005532;28;20442;-54
2022/08/26 09:23:26;;;;;;;13.63;7.63;;;;;;;;;;5022763;28;20426;-54
2022/08/26 09:26:03;;;;;;;9.37;7.07;;;;;;;;;;4983378;28;20451;-54
2022/08/26 09:28:29;;;;;;;7.60;6.90;;;;;;;;;;5022536;28;20536;-52
2022/08/26 09:31:03;;;;;;;7.40;6.70;;;;;;;;;;5012466;28;20479;-53
2022/08/26 09:33:30;;;;;;;9.83;7.20;;;;;;;;;;5003681;28;20564;-53
2022/08/26 09:36:10;;;;;;;7.53;6.63;;;;;;;;;;5023231;28;20447;-53
2022/08/26 09:38:36;;;;;;;11.87;7.87;;;;;;;;;;5007763;28;20750;-54
2022/08/26 09:41:03;;;;;;;10.30;7.60;;;;;;;;;;5026321;28;20992;-55
2022/08/26 09:43:29;;;;;;;7.53;6.57;;;;;;;;;;5035509;28;20226;-53
2022/08/26 09:46:09;;;;;;;8.73;7.20;;;;;;;;;;4997302;28;20962;-54
2022/08/26 09:48:36;;;;;;;7.93;7.13;;;;;;;;;;5010319;28;20180;-53
2022/08/26 09:51:03;;;;;;;8.20;7.40;;;;;;;;;;5023409;28;20467;-53
2022/08/26 09:53:38;;;;;;;8.17;6.93;;;;;;;;;;5029794;28;20427;-53
2022/08/26 09:56:17;;;;;;;7.60;6.83;;;;;;;;;;4965190;28;20459;-53
2022/08/26 09:58:44;;;;;;;10.37;7.43;;;;;;;;;;5025883;28;20471;-52
2022/08/26 10:01:15;;;;;;;11.43;7.23;;;;;;;;;;4998765;28;20988;-53
2022/08/26 10:03:41;;;;;;;9.73;7.17;;;;;;;;;;5027610;28;20439;-53
2022/08/26 10:06:18;;;;;;;8.33;7.00;;;;;;;;;;5023457;28;20446;-53
2022/08/26 10:08:45;;;;;;;10.40;7.30;;;;;;;;;;5028418;28;20895;-53
2022/08/26 10:11:16;;;;;;;12.47;8.33;;;;;;;;;;5022194;28;20482;-54
2022/08/26 10:13:43;;;;;;;12.93;8.97;;;;;;;;;;5018448;28;20439;-53
2022/08/26 10:16:14;;;;;;;10.93;7.37;;;;;;;;;;5009077;28;20446;-53
2022/08/26 10:18:42;;;;;;;15.73;6.77;;;;;;;;;;5013627;28;20836;-52
2022/08/26 10:21:15;;;;;;;16.37;8.40;;;;;;;;;;4997559;28;20444;-53
2022/08/26 10:23:42;;;;;;;14.30;7.53;;;;;;;;;;5002558;28;20486;-53
2022/08/26 10:26:09;;;;;;;9.17;6.77;;;;;;;;;;4997489;28;20561;-54
2022/08/26 10:28:55;;;;;;;9.20;6.50;;;;;;;;;;5012937;28;21005;-54
2022/08/26 10:31:27;;;;;;;17.27;7.97;;;;;;;;;;4982717;28;20510;-54
2022/08/26 10:33:53;;;;;;;8.20;7.27;;;;;;;;;;5020472;28;20442;-54
2022/08/26 10:39:04;;;;;;;10.60;6.73;;;;;;;;;;5008199;28;20808;-53
2022/08/26 10:41:35;;;;;;;9.50;7.63;;;;;;;;;;5017383;28;20442;-54
2022/08/26 10:44:01;;;;;;;10.57;7.57;;;;;;;;;;4989999;28;20424;-54
2022/08/26 10:46:29;;;;;;;8.90;7.07;;;;;;;;;;5016707;28;20481;-53
2022/08/26 10:48:56;;;;;;;9.03;7.70;;;;;;;;;;5019430;28;20424;-53
2022/08/26 10:51:23;;;;;;;12.30;7.33;;;;;;;;;;5015597;28;20510;-54
2022/08/26 10:54:04;;;;;;;8.20;7.37;;;;;;;;;;5006196;28;20498;-53
2022/08/26 10:56:33;;;;;;;8.90;6.53;;;;;;;;;;5012657;28;20515;-53
2022/08/26 10:58:59;;;;;;;7.83;7.00;;;;;;;;;;5028476;28;20463;-53
2022/08/26 11:01:41;;;;;;;11.83;6.67;;;;;;;;;;4982389;28;22654;-52
2022/08/26 11:04:20;;;;;;;7.20;6.10;;;;;;;;;;5027166;28;20216;-52
2022/08/26 11:06:46;;;;;;;9.20;7.77;;;;;;;;;;5018690;28;20485;-54
2022/08/26 11:09:13;;;;;;;8.10;6.80;;;;;;;;;;5029369;28;20814;-53
2022/08/26 11:11:39;;;;;;;11.57;7.03;;;;;;;;;;5012669;28;21248;-52
2022/08/26 11:14:09;;;;;;;12.67;7.60;;;;;;;;;;5025069;28;20439;-53
2022/08/26 11:16:39;;;;;;;8.97;6.83;;;;;;;;;;5018550;28;20681;-53
2022/08/26 11:19:05;;;;;;;11.77;7.30;;;;;;;;;;5025319;28;20436;-53
2022/08/26 11:21:42;;;;;;;9.70;8.17;;;;;;;;;;5024660;28;20439;-53
2022/08/26 11:24:08;;;;;;;9.50;6.57;;;;;;;;;;5028422;28;20466;-53
2022/08/26 11:26:34;;;;;;;7.20;6.33;;;;;;;;;;5021999;28;20470;-54
2022/08/26 11:29:00;;;;;;;9.83;6.87;;;;;;;;;;5007581;28;20699;-53
2022/08/26 11:31:26;;;;;;;9.50;7.33;;;;;;;;;;5020031;28;20598;-53
2022/08/26 11:33:55;;;;;;;10.27;7.30;;;;;;;;;;5028712;28;20204;-53
2022/08/26 11:36:28;;;;;;;10.87;8.30;;;;;;;;;;4981198;28;20950;-54
2022/08/26 11:38:54;;;;;;;7.67;6.90;;;;;;;;;;5004461;28;20444;-54
2022/08/26 11:41:20;;;;;;;9.90;6.10;;;;;;;;;;5022618;28;20447;-53
2022/08/26 11:43:48;;;;;;;6.37;5.33;;;;;;;;;;5024498;28;20172;-55
2022/08/26 11:46:14;;;;;;;9.40;6.30;;;;;;;;;;4996700;28;20443;-54
2022/08/26 11:48:41;;;;;;;8.57;6.60;;;;;;;;;;5012693;28;21278;-54
2022/08/26 11:51:21;;;;;;;6.87;6.10;;;;;;;;;;5013905;28;20482;-53
2022/08/26 11:53:47;;;;;;;8.70;6.30;;;;;;;;;;5016011;28;20843;-54
2022/08/26 11:56:17;;;;;;;10.83;6.97;;;;;;;;;;5020167;28;20446;-53
2022/08/26 11:58:43;;;;;;;7.23;6.53;;;;;;;;;;5013956;28;20168;-54
2022/08/26 12:01:09;;;;;;;9.33;6.23;;;;;;;;;;4989425;28;20946;-54
2022/08/26 12:03:37;;;;;;;9.83;6.70;;;;;;;;;;5007395;28;20439;-54
2022/08/26 12:06:03;;;;;;;10.60;6.80;;;;;;;;;;4954813;28;20482;-53
2022/08/26 12:08:29;;;;;;;7.93;5.73;;;;;;;;;;5004970;28;20443;-53
2022/08/26 12:11:04;;;;;;;7.03;6.33;;;;;;;;;;5021246;28;20481;-53
2022/08/26 12:13:29;;;;;;;8.50;5.70;;;;;;;;;;5024541;28;20435;-53
2022/08/26 12:15:56;;;;;;;10.07;5.70;;;;;;;;;;5023593;28;20499;-53
2022/08/26 12:18:26;;;;;;;8.87;6.27;;;;;;;;;;5024395;28;20189;-54
2022/08/26 12:20:55;;;;;;;6.83;5.90;;;;;;;;;;5026606;28;20443;-56
2022/08/26 12:23:30;;;;;;;9.20;6.90;;;;;;;;;;5016698;28;20485;-53
2022/08/26 12:26:04;;;;;;;19.30;9.13;;;;;;;;;;5018945;28;20517;-54
2022/08/26 12:28:29;;;;;;;6.97;6.10;;;;;;;;;;5009561;28;20537;-54
2022/08/26 12:31:03;;;;;;;11.10;7.30;;;;;;;;;;5016143;28;20502;-54
2022/08/26 12:33:29;;;;;;;8.33;5.50;;;;;;;;;;5016103;28;20523;-54
2022/08/26 12:35:55;;;;;;;6.77;5.93;;;;;;;;;;5000961;28;20438;-54
2022/08/26 12:38:21;;;;;;;6.57;5.97;;;;;;;;;;4987423;28;20447;-54
2022/08/26 12:40:49;;;;;;;8.10;6.30;;;;;;;;;;5012265;28;20442;-55
2022/08/26 12:43:35;;;;;;;8.63;5.83;;;;;;;;;;5023126;28;20446;-55
2022/08/26 12:46:00;;;;;;;6.30;5.40;;;;;;;;;;5024166;28;20439;-56
2022/08/26 12:48:30;;;;;;;8.60;7.17;;;;;;;;;;5010841;28;20447;-54
2022/08/26 12:50:56;;;;;;;7.77;6.77;;;;;;;;;;5021065;28;20956;-55
2022/08/26 12:53:23;;;;;;;8.97;7.13;;;;;;;;;;5005411;28;20625;-55
2022/08/26 12:55:50;;;;;;;11.90;7.40;;;;;;;;;;5017728;28;20238;-55
2022/08/26 12:58:35;;;;;;;12.10;9.67;;;;;;;;;;5005178;28;20444;-54
2022/08/26 13:01:07;;;;;;;9.77;7.07;;;;;;;;;;5023400;28;20475;-55
2022/08/26 13:03:33;;;;;;;14.63;8.03;;;;;;;;;;5023500;28;20455;-54
2022/08/26 13:06:17;;;;;;;12.23;8.60;;;;;;;;;;5022384;28;20430;-55
2022/08/26 13:08:47;;;;;;;10.90;7.30;;;;;;;;;;5028983;28;20176;-55
2022/08/26 13:11:19;;;;;;;12.60;7.67;;;;;;;;;;4985447;28;22497;-57
2022/08/26 13:13:45;;;;;;;8.77;7.87;;;;;;;;;;5006873;28;21060;-53
2022/08/26 13:16:12;;;;;;;11.53;7.47;;;;;;;;;;5016887;28;20562;-53
2022/08/26 13:18:38;;;;;;;13.37;9.50;;;;;;;;;;5020391;28;20441;-53
2022/08/26 13:21:07;;;;;;;12.97;8.70;;;;;;;;;;5029653;28;20435;-53
2022/08/26 13:23:33;;;;;;;12.73;8.30;;;;;;;;;;5023266;28;20895;-54
2022/08/26 13:26:00;;;;;;;9.47;7.00;;;;;;;;;;5029805;28;20473;-54
2022/08/26 13:28:26;;;;;;;15.40;7.90;;;;;;;;;;5026694;28;20809;-55
2022/08/26 13:30:52;;;;;;;11.03;7.10;;;;;;;;;;5027440;28;20482;-55
2022/08/26 13:33:20;;;;;;;21.90;8.60;;;;;;;;;;5022535;28;20184;-54
2022/08/26 13:35:46;;;;;;;24.43;10.73;;;;;;;;;;5027436;28;20264;-54
2022/08/26 13:38:13;;;;;;;32.03;14.07;;;;;;;;;;5013804;28;20427;-55
2022/08/26 13:40:40;;;;;;;27.13;13.47;;;;;;;;;;5014141;28;21603;-55
2022/08/26 13:43:05;;;;;;;30.60;15.93;;;;;;;;;;5028470;28;20466;-54
2022/08/26 13:45:31;;;;;;;27.70;16.10;;;;;;;;;;5028122;28;20488;-54
2022/08/26 13:47:59;;;;;;;21.47;13.73;;;;;;;;;;4978676;28;20244;-54
2022/08/26 13:50:25;;;;;;;17.27;12.80;;;;;;;;;;5005095;28;20250;-54
2022/08/26 13:52:51;;;;;;;23.43;12.70;;;;;;;;;;5023901;28;20566;-54
2022/08/26 13:55:16;;;;;;;17.97;13.30;;;;;;;;;;5028368;28;20438;-54
2022/08/26 13:57:42;;;;;;;21.60;13.83;;;;;;;;;;5025970;28;20184;-53
2022/08/26 14:00:09;;;;;;;16.07;13.33;;;;;;;;;;5028427;28;20180;-54
2022/08/26 14:02:35;;;;;;;18.90;13.80;;;;;;;;;;5021758;28;20192;-54
2022/08/26 14:05:01;;;;;;;20.10;15.67;;;;;;;;;;5022907;28;20423;-54
2022/08/26 14:07:27;;;;;;;16.50;12.63;;;;;;;;;;5020299;28;20970;-54
2022/08/26 14:09:53;;;;;;;20.83;11.77;;;;;;;;;;5026252;28;20176;-54
2022/08/26 14:12:19;;;;;;;17.63;12.00;;;;;;;;;;5025166;28;20254;-54
2022/08/26 14:14:45;;;;;;;14.40;11.27;;;;;;;;;;5026344;28;20909;-54
2022/08/26 14:17:12;;;;;;;17.30;13.50;;;;;;;;;;5025216;28;20442;-54
2022/08/26 14:19:38;;;;;;;16.17;11.87;;;;;;;;;;5006646;28;20428;-53
2022/08/26 14:22:03;;;;;;;12.53;10.67;;;;;;;;;;4963483;28;20444;-54
2022/08/26 14:24:29;;;;;;;18.33;10.13;;;;;;;;;;5011693;28;20183;-53
2022/08/26 14:26:55;;;;;;;16.33;12.20;;;;;;;;;;5019170;28;20196;-53
2022/08/26 14:29:21;;;;;;;14.73;10.60;;;;;;;;;;5028190;28;20419;-54
2022/08/26 14:31:47;;;;;;;19.60;11.33;;;;;;;;;;5025172;28;20489;-55
2022/08/26 14:34:13;;;;;;;14.10;9.80;;;;;;;;;;5020982;28;20429;-55
2022/08/26 14:36:39;;;;;;;9.50;7.77;;;;;;;;;;5021776;28;20185;-54
2022/08/26 14:39:09;;;;;;;8.50;7.60;;;;;;;;;;5003763;28;20465;-54
2022/08/26 14:41:37;;;;;;;10.50;9.47;;;;;;;;;;5026475;28;20868;-54
2022/08/26 14:44:05;;;;;;;12.97;9.73;;;;;;;;;;5018044;28;20987;-54
2022/08/26 14:46:31;;;;;;;15.93;11.97;;;;;;;;;;5005403;28;20465;-54
2022/08/26 14:48:57;;;;;;;11.60;10.30;;;;;;;;;;4990865;28;20951;-54